Airfield :







YOU CAN JOIN US ON...

 
LOGIN :

Register | Disclaimer

   EN    FR    IT 

 









Legend :    VFR   Marginal VFR   IFR   Intensive IFR   Very Intensive IFR
Visi :
Ceiling :
>= 8 km
>= 3000ft
5 to 8 km
1000 to 3000 ft
1500m to 5 km
500 to 1000 ft
800 to 1500m
200 to 500 ft
< 800m
< 200 ft
Symbols :   Thunderstorms  Fog  Heavy snow  Heavy precipitations  Wind > 20 kt






- Airport Elevation : 110 ft
- IATA code : YFB


CYFB - Iqaluit

CURRENT METAR :
  • 172000Z 31002KT 30SM FEW040 M30/M34 A2966 RMK SC1 SC TR SLP051

EXPIRED METARs :
  • 171900Z VRB02KT 30SM FEW040 M30/M34 A2963 RMK SC1 SC TR SLP042
  • 171800Z 00000KT 30SM FEW040 M30/M35 A2961 RMK SC1 SC TR SLP035

TAF TAF CYFB
Valid from the 17 at 18:00 until the 18 at 18:00 UTC


171738Z 1718/1818 33008KT P6SM FEW040 FEW120
BECMG 1722/1724 VRB03KT RMK NXT FCST BY 180000Z



MET'MAP, your aeronautical weather chart ! - Copyright ORBIFLY December 2007 - Disclaimer

ORBIFLY MET'MAP TEAM :

Programming & Development : Alexandra Zaïnal
Concept & original design : Baudouin d'Aumeries
Assistance for programming : Marc-Olivier Méhu
Technical & hardware support : Manuel Goepfert

Contact : metmap@orbifly.com




SOURCES & CREDITS :

   NOAA